Página principal
METAR-TAF:

METAR-TAF

Aeroportos :

Rabat, Marrocos

latitude: 34-03N, longitude: 006-46W, altura: 84 m

Observação actual do tempo

O boletim foi feito há 12 minutos, às 01:00 UTC
Vento calmo
Temperatura 13°C
Humidade 88%
Pressão 1014 hPa
Visibilidade: 2300 m
Poucas nuvensa uma altura de 500 ft
Nuvens dispersasa uma altura de 1300 ft

METAR: GMME 140100Z 00000KT 6000 2300 FEW005 SCT013 13/11 Q1014 NOSIG

Hora: 01:12 (01:12 UTC)

Previsão

O boletim foi feito há 2 horas e 12 minutos, às 23:00 UTC
Previsão válida de 14 às 00 UTC a 15 às 06 UTC
Vento 13 kt de norte
Visibilidade: 8000 m
Nuvens dispersasa uma altura de 1300 ft
Nuvens dispersasa uma altura de 8000 ft
Temporariamente
de 14 às 02 UTC a 14 às 06 UTC
Vento 2 kt com direcção variável
Visibilidade: 3000 m
Nuvens dispersasa uma altura de 800 ft
Nuvens fragmentadasa uma altura de 2000 ft
neblina

TAF: GMME 132300Z 1400/1506 35013KT 8000 SCT013 SCT080 TEMPO 1402/1406 VRB02KT 3000 BR SCT008 BKN020

Observações e previsões do tempo de mais de 4000 aeroportos (mensagens METAR e TAF).

As estações disponíveis são os pontos amarelos e vermelhos sobre o mapa.

Mova o rato sobre o mapa para ver o nome da estação.

Depois clique no ponto para visualizar as observações e previsões meteorológicas.

Para alterar o mapa : clique nos botões verdes com uma cruz preta para aumentar o zoom; no botão verde com uma pitada de zoom; ou nas setas verdes para mapas adjacentes.


METAR-TAF: